createdAt,value
2019-02-28T15:09:54.751Z,14.95
2019-02-28T15:10:55.168Z,14.76
2019-02-28T15:11:54.338Z,14.69
2019-02-28T15:12:55.351Z,15.09
2019-02-28T15:13:54.404Z,15.35
2019-02-28T15:14:54.373Z,15.55
2019-02-28T15:15:54.613Z,15.69
2019-02-28T15:16:54.367Z,15.73
2019-02-28T15:17:54.368Z,15.39
2019-02-28T15:18:54.375Z,15.21
2019-02-28T15:19:57.068Z,15.26
2019-02-28T15:20:54.428Z,15.14
2019-02-28T15:21:54.440Z,15.65
2019-02-28T15:22:56.168Z,15.11
2019-02-28T15:23:54.417Z,15.96
2019-02-28T15:24:54.429Z,15.72
2019-02-28T15:25:54.983Z,16.36
2019-02-28T15:26:54.480Z,15.80
2019-02-28T15:27:54.511Z,15.82
2019-02-28T15:28:54.437Z,16.02
2019-02-28T15:29:55.511Z,16.11
2019-02-28T15:30:54.478Z,15.61
2019-02-28T15:31:54.495Z,16.15
2019-02-28T15:32:55.599Z,16.21
2019-02-28T15:33:54.331Z,16.30
2019-02-28T15:34:54.514Z,16.01
2019-02-28T15:35:54.546Z,16.52
2019-02-28T15:36:55.526Z,16.85
2019-02-28T15:37:54.353Z,16.58
2019-02-28T15:38:54.351Z,16.69
2019-02-28T15:39:54.736Z,16.81
2019-02-28T15:40:55.765Z,16.79
2019-02-28T15:41:54.390Z,16.96
2019-02-28T15:42:54.790Z,16.62
2019-02-28T15:43:54.464Z,16.91
2019-02-28T15:44:54.376Z,17.06
2019-02-28T15:45:54.386Z,16.79
2019-02-28T15:46:55.751Z,16.93
2019-02-28T15:47:55.430Z,17.02
2019-02-28T15:48:54.488Z,16.74
2019-02-28T15:49:54.415Z,16.91
2019-02-28T15:50:54.416Z,16.60
2019-02-28T15:51:54.418Z,16.58
2019-02-28T15:52:54.474Z,16.78
2019-02-28T15:53:54.719Z,16.71
2019-02-28T15:54:56.942Z,16.97
2019-02-28T15:55:54.454Z,16.85
2019-02-28T15:56:55.429Z,17.08
2019-02-28T15:57:54.482Z,17.10
2019-02-28T15:58:54.483Z,17.04
2019-02-28T15:59:54.518Z,16.92
2019-02-28T16:00:56.643Z,17.11
2019-02-28T16:01:54.494Z,17.36
2019-02-28T16:02:54.557Z,17.35
2019-02-28T16:03:54.552Z,17.51
2019-02-28T16:04:57.734Z,17.52
2019-02-28T16:05:56.216Z,17.54
2019-02-28T16:06:57.928Z,17.27
2019-02-28T16:07:54.362Z,17.61
2019-02-28T16:08:54.359Z,17.67
2019-02-28T16:09:57.031Z,17.88
2019-02-28T16:10:54.439Z,17.81
2019-02-28T16:11:54.572Z,18.01
2019-02-28T16:12:54.354Z,17.79
2019-02-28T16:13:54.379Z,18.33
2019-02-28T16:14:54.476Z,18.30
2019-02-28T16:15:54.449Z,18.51
2019-02-28T16:16:56.815Z,18.52
2019-02-28T16:17:54.407Z,18.51
2019-02-28T16:18:54.401Z,18.72
2019-02-28T16:19:56.190Z,18.95
2019-02-28T16:20:54.454Z,19.11
2019-02-28T16:21:54.463Z,18.90
2019-02-28T16:22:54.468Z,19.17
2019-02-28T16:23:54.504Z,19.59
2019-02-28T16:24:54.456Z,19.59
2019-02-28T16:25:54.471Z,19.89
2019-02-28T16:26:56.696Z,19.56
2019-02-28T16:27:54.519Z,19.82
2019-02-28T16:28:54.484Z,19.76
2019-02-28T16:29:55.614Z,19.96
2019-02-28T16:30:54.507Z,20.19
2019-02-28T16:31:54.540Z,20.60
2019-02-28T16:32:54.526Z,19.90
2019-02-28T16:33:57.729Z,19.25
2019-02-28T16:34:54.513Z,19.95
2019-02-28T16:35:54.549Z,19.99
2019-02-28T16:36:57.408Z,19.54
2019-02-28T16:37:54.574Z,19.68
2019-02-28T16:38:54.355Z,19.90
2019-02-28T16:39:54.353Z,19.86
2019-02-28T16:40:57.688Z,19.76
2019-02-28T16:41:54.605Z,20.16
2019-02-28T16:42:54.418Z,20.46
2019-02-28T16:43:55.570Z,20.43
2019-02-28T16:44:54.400Z,20.25
2019-02-28T16:45:54.411Z,20.94
2019-02-28T16:46:54.866Z,20.70
2019-02-28T16:47:55.611Z,20.93
2019-02-28T16:48:54.434Z,21.10
2019-02-28T16:49:54.900Z,20.68
2019-02-28T16:50:56.770Z,20.68
2019-02-28T16:51:54.656Z,20.50
2019-02-28T16:52:54.484Z,20.97
2019-02-28T16:53:54.470Z,20.75
2019-02-28T16:54:56.305Z,21.21
2019-02-28T16:55:54.523Z,21.44
2019-02-28T16:56:54.558Z,21.30
2019-02-28T16:57:54.783Z,20.93
2019-02-28T16:58:57.304Z,21.42
2019-02-28T16:59:54.724Z,21.77
2019-02-28T17:00:54.535Z,21.80
2019-02-28T17:01:54.834Z,21.99
2019-02-28T17:02:54.543Z,21.70
2019-02-28T17:03:54.529Z,22.34
2019-02-28T17:04:54.564Z,21.69
2019-02-28T17:05:54.559Z,22.83
2019-02-28T17:06:55.559Z,22.71
2019-02-28T17:07:54.676Z,24.07
2019-02-28T17:08:55.331Z,25.97
